Frances E. Haden — WX9254 — position and weather

sailwx.info

Track history (hours):
 
Tides and Currents Weather Stations Pressure Air Temp Water Temp Dewpoint Dewpoint Depression Visibility Wind Speed Wind Dir Waves Ship Positions

Frances E. Haden

Owner: G & H Towing Company, GALVESTON, TX. More information available from US FCC via Universal Licensing System and Coast Guard Vessel Documentation Center.

Last reported at 2017-Oct-18 09:05 UTC. Time now 2017-Oct-18 11:18 UTC.
Position N 29°44' W 095°16'.

Length 28 m; draft 4.5 m.

Type: Tug. MMSI: 366919940.

Date/timePositionNaut miles runAvg speedWind from/ knotsBaromVisibWave heightAir tempDewpointWater temp
2017-Oct-18 09:05N 29°44' W 095°16'1 6.3
2017-Oct-18 08:58N 29°44' W 095°16'3 6.8
2017-Oct-18 08:30N 29°44' W 095°12'10 6.5
2017-Oct-18 07:01N 29°42' W 095°01'0 8.7
2017-Oct-18 07:00N 29°42' W 095°01'4 9.0
2017-Oct-18 06:30N 29°39' W 094°58'3 6.6
2017-Oct-18 06:00N 29°37' W 095°01'0 0.8
2017-Oct-18 05:30N 29°37' W 095°02'1 2.6
2017-Oct-18 05:00N 29°37' W 095°00'0 0.7
2017-Oct-18 04:21N 29°37' W 095°01'0 0.0
2017-Oct-18 04:00N 29°37' W 095°01'1 1.4
2017-Oct-18 03:30N 29°37' W 095°01'0 0.6
2017-Oct-18 02:58N 29°37' W 095°02'0 0.0
2017-Oct-18 02:28N 29°37' W 095°02'0 0.0
2017-Oct-18 01:58N 29°37' W 095°02'0 0.2
2017-Oct-18 01:30N 29°37' W 095°01'0 0.3
2017-Oct-18 01:00N 29°37' W 095°01'1 1.2
2017-Oct-18 00:29N 29°37' W 095°01'0 0.0
2017-Oct-17 23:59N 29°37' W 095°01'0 0.0
2017-Oct-17 23:29N 29°37' W 095°01'0 0.0
2017-Oct-17 22:59N 29°37' W 095°01'0 0.0
2017-Oct-17 22:14N 29°37' W 095°01'0 0.0
2017-Oct-17 21:59N 29°37' W 095°01'0 0.0
2017-Oct-17 21:14N 29°37' W 095°01'0 0.0
2017-Oct-17 20:59N 29°37' W 095°01'1 1.5
2017-Oct-17 20:30N 29°37' W 095°01'0 0.1
2017-Oct-17 19:57N 29°37' W 095°01'0 0.1
2017-Oct-17 19:14N 29°37' W 095°01'0 0.8
2017-Oct-17 18:58N 29°37' W 095°02'0 0.0
2017-Oct-17 18:28N 29°37' W 095°02'1 3.0
2017-Oct-17 18:01N 29°37' W 094°60'4 6.4
2017-Oct-17 17:27N 29°40' W 094°59'9 6.6
2017-Oct-17 16:03N 29°44' W 095°08'1 8.1
2017-Oct-17 15:56N 29°44' W 095°09'5 6.9
2017-Oct-17 15:10N 29°44' W 095°15'1 3.8
2017-Oct-17 14:57N 29°43' W 095°16'0 0.3
2017-Oct-17 14:24N 29°44' W 095°16'0 0.0
2017-Oct-17 13:45N 29°44' W 095°16'1 0.3
2017-Oct-17 10:39N 29°43' W 095°15'0 0.0
2017-Oct-17 10:09N 29°43' W 095°15'0 0.0
2017-Oct-17 09:45N 29°43' W 095°15'0 0.0
2017-Oct-17 05:51N 29°43' W 095°15'0 0.0
2017-Oct-17 05:27N 29°43' W 095°15'1 1.6
2017-Oct-17 05:00N 29°43' W 095°14'0 0.1
2017-Oct-17 04:24N 29°43' W 095°14'0 0.6
2017-Oct-17 03:58N 29°43' W 095°14'1 1.7
2017-Oct-17 03:29N 29°44' W 095°13'1 2.7
2017-Oct-17 03:01N 29°43' W 095°15'0 0.0
2017-Oct-17 02:28N 29°43' W 095°15'0 0.0
2017-Oct-17 01:52N 29°43' W 095°15'0 0.0
2017-Oct-17 01:28N 29°43' W 095°15'0 0.0
2017-Oct-17 01:01N 29°43' W 095°15'1 2.4
2017-Oct-17 00:29N 29°44' W 095°16'0 0.1
2017-Oct-17 00:00N 29°44' W 095°16'2 2.0
2017-Oct-16 23:14N 29°43' W 095°15'0 0.0
2017-Oct-16 23:00N 29°43' W 095°15'1 0.2
2017-Oct-16 20:49N 29°43' W 095°15'5 6.1
2017-Oct-16 19:57N 29°44' W 095°09'7 6.1
2017-Oct-16 18:51N 29°43' W 095°01'3 7.4
2017-Oct-16 18:30N 29°41' W 094°59'5 9.3
2017-Oct-16 18:01N 29°37' W 094°58'2 4.7
2017-Oct-16 17:29N 29°37' W 095°01'0 0.0
2017-Oct-16 16:57N 29°37' W 095°01'0 0.0
2017-Oct-16 16:31N 29°37' W 095°01'0 0.0
2017-Oct-16 16:00N 29°37' W 095°01'0 0.0
2017-Oct-16 15:30N 29°37' W 095°01'0 0.0
2017-Oct-16 15:01N 29°37' W 095°01'1 0.7
2017-Oct-16 14:00N 29°37' W 095°01'1 2.1
2017-Oct-16 13:31N 29°37' W 095°00'0 0.7
2017-Oct-16 13:00N 29°37' W 095°01'0 0.0
2017-Oct-16 12:30N 29°37' W 095°01'0 0.0
2017-Oct-16 12:00N 29°37' W 095°01'0 0.0
2017-Oct-16 11:31N 29°37' W 095°01'1 1.5
2017-Oct-16 11:01N 29°37' W 095°01'1 1.8
2017-Oct-16 10:30N 29°37' W 095°00'4 6.0
2017-Oct-16 09:54N 29°40' W 094°59'  
2017-Oct-13 12:27N 29°44' W 095°16'0 0.0
2017-Oct-13 11:49N 29°44' W 095°16'0 0.0
2017-Oct-13 07:13N 29°44' W 095°16'0 0.0
2017-Oct-13 06:53N 29°44' W 095°16'0 0.0
2017-Oct-13 05:00N 29°44' W 095°16'0 0.0
2017-Oct-13 04:29N 29°44' W 095°16'0 0.0
2017-Oct-13 03:58N 29°44' W 095°16'0 0.0
2017-Oct-13 03:30N 29°44' W 095°16'0 0.0
2017-Oct-13 03:00N 29°44' W 095°16'0 0.0
2017-Oct-13 02:21N 29°44' W 095°16'0 0.0
2017-Oct-13 01:59N 29°44' W 095°16'2 3.0
2017-Oct-13 01:24N 29°43' W 095°15'2 1.5
2017-Oct-13 00:16N 29°44' W 095°16'0 0.2
2017-Oct-12 23:57N 29°44' W 095°16'2 3.9
2017-Oct-12 23:29N 29°43' W 095°14'0 0.1
2017-Oct-12 23:00N 29°43' W 095°14'2 1.3
2017-Oct-12 21:36N 29°44' W 095°16'1 6.9
2017-Oct-12 21:25N 29°45' W 095°17'0 0.3
2017-Oct-12 20:46N 29°45' W 095°17'1 0.3
2017-Oct-12 18:48N 29°44' W 095°17'1 1.1
2017-Oct-12 18:08N 29°44' W 095°16'0 0.0
2017-Oct-12 17:20N 29°44' W 095°16'0 0.1
2017-Oct-12 14:41N 29°44' W 095°16'3 7.1
2017-Oct-12 14:12N 29°44' W 095°12'5 0.8
2017-Oct-12 08:15N 29°45' W 095°07'3 5.0
2017-Oct-12 07:36N 29°44' W 095°03'2 6.2
2017-Oct-12 07:21N 29°44' W 095°01'0 0.0
2017-Oct-12 07:00N 29°44' W 095°01'0 0.8
2017-Oct-12 06:22N 29°44' W 095°02'5 7.0
2017-Oct-12 05:37N 29°44' W 095°08'1 9.0
2017-Oct-12 05:30N 29°44' W 095°09'3 5.7
2017-Oct-12 05:00N 29°44' W 095°12'0 0.0
2017-Oct-12 04:26N 29°44' W 095°12'0 0.0
2017-Oct-12 04:00N 29°44' W 095°12'0 0.0
2017-Oct-12 03:26N 29°44' W 095°12'0 0.0
2017-Oct-12 03:00N 29°44' W 095°12'0 0.0
2017-Oct-12 02:30N 29°44' W 095°12'0 0.0
2017-Oct-12 01:43N 29°44' W 095°12'0 0.0
2017-Oct-11 21:47N 29°44' W 095°12'3 3.2
2017-Oct-11 20:54N 29°44' W 095°09'1 0.2
2017-Oct-11 17:32N 29°44' W 095°08'0 8.5
2017-Oct-11 17:30N 29°44' W 095°08'6 0.3
2017-Oct-10 19:25N 29°43' W 095°15'2 3.9
2017-Oct-10 18:55N 29°44' W 095°17'0 0.0
2017-Oct-10 17:43N 29°44' W 095°17'0 0.0
2017-Oct-10 17:25N 29°44' W 095°17'0 0.0
2017-Oct-10 16:55N 29°44' W 095°17'0 0.0
2017-Oct-10 16:25N 29°44' W 095°17'1 1.1
2017-Oct-10 15:50N 29°45' W 095°17'0 0.0
2017-Oct-10 15:30N 29°45' W 095°17'1 0.3
2017-Oct-10 13:15N 29°44' W 095°17'2 3.2
2017-Oct-10 12:28N 29°43' W 095°14'1 1.9
2017-Oct-10 11:56N 29°44' W 095°13'0 0.2
2017-Oct-10 11:25N 29°44' W 095°13'0 0.0
2017-Oct-10 10:47N 29°44' W 095°13'9 0.4
2017-Oct-09 10:54N 29°44' W 095°03'0 0.0
2017-Oct-09 10:28N 29°44' W 095°03'1 0.8
2017-Oct-09 08:56N 29°44' W 095°02'4 0.8
2017-Oct-09 03:37N 29°44' W 095°07'0 0.0
2017-Oct-09 03:27N 29°44' W 095°07'0 0.0
2017-Oct-09 03:00N 29°44' W 095°07'0 0.0
2017-Oct-09 02:30N 29°44' W 095°07'0 0.0
2017-Oct-09 01:59N 29°44' W 095°07'0 0.0
2017-Oct-09 01:30N 29°44' W 095°07'0 0.0
2017-Oct-08 10:52N 29°44' W 095°07'1 2.1
2017-Oct-08 10:25N 29°44' W 095°08'  
Track history (hours):
 
Tides and Currents Weather Stations Pressure Air Temp Water Temp Dewpoint Dewpoint Depression Visibility Wind Speed Wind Dir Waves Ship Positions

Frances E. Haden

Owner: G & H Towing Company, GALVESTON, TX. More information available from US FCC via Universal Licensing System and Coast Guard Vessel Documentation Center.

Last reported at 2017-Oct-18 09:05 UTC. Time now 2017-Oct-18 11:18 UTC.
Position N 29°44' W 095°16'.

Length 28 m; draft 4.5 m.

Type: Tug. MMSI: 366919940.

Date/timePositionNaut miles runAvg speedWind from/ knotsBaromVisibWave heightAir tempDewpointWater temp
2017-Oct-18 09:05N 29°44' W 095°16'1 6.3
2017-Oct-18 08:58N 29°44' W 095°16'3 6.8
2017-Oct-18 08:30N 29°44' W 095°12'10 6.5
2017-Oct-18 07:01N 29°42' W 095°01'0 8.7
2017-Oct-18 07:00N 29°42' W 095°01'4 9.0
2017-Oct-18 06:30N 29°39' W 094°58'3 6.6
2017-Oct-18 06:00N 29°37' W 095°01'0 0.8
2017-Oct-18 05:30N 29°37' W 095°02'1 2.6
2017-Oct-18 05:00N 29°37' W 095°00'0 0.7
2017-Oct-18 04:21N 29°37' W 095°01'0 0.0
2017-Oct-18 04:00N 29°37' W 095°01'1 1.4
2017-Oct-18 03:30N 29°37' W 095°01'0 0.6
2017-Oct-18 02:58N 29°37' W 095°02'0 0.0
2017-Oct-18 02:28N 29°37' W 095°02'0 0.0
2017-Oct-18 01:58N 29°37' W 095°02'0 0.2
2017-Oct-18 01:30N 29°37' W 095°01'0 0.3
2017-Oct-18 01:00N 29°37' W 095°01'1 1.2
2017-Oct-18 00:29N 29°37' W 095°01'0 0.0
2017-Oct-17 23:59N 29°37' W 095°01'0 0.0
2017-Oct-17 23:29N 29°37' W 095°01'0 0.0
2017-Oct-17 22:59N 29°37' W 095°01'0 0.0
2017-Oct-17 22:14N 29°37' W 095°01'0 0.0
2017-Oct-17 21:59N 29°37' W 095°01'0 0.0
2017-Oct-17 21:14N 29°37' W 095°01'0 0.0
2017-Oct-17 20:59N 29°37' W 095°01'1 1.5
2017-Oct-17 20:30N 29°37' W 095°01'0 0.1
2017-Oct-17 19:57N 29°37' W 095°01'0 0.1
2017-Oct-17 19:14N 29°37' W 095°01'0 0.8
2017-Oct-17 18:58N 29°37' W 095°02'0 0.0
2017-Oct-17 18:28N 29°37' W 095°02'1 3.0
2017-Oct-17 18:01N 29°37' W 094°60'4 6.4
2017-Oct-17 17:27N 29°40' W 094°59'9 6.6
2017-Oct-17 16:03N 29°44' W 095°08'1 8.1
2017-Oct-17 15:56N 29°44' W 095°09'5 6.9
2017-Oct-17 15:10N 29°44' W 095°15'1 3.8
2017-Oct-17 14:57N 29°43' W 095°16'0 0.3
2017-Oct-17 14:24N 29°44' W 095°16'0 0.0
2017-Oct-17 13:45N 29°44' W 095°16'1 0.3
2017-Oct-17 10:39N 29°43' W 095°15'0 0.0
2017-Oct-17 10:09N 29°43' W 095°15'0 0.0
2017-Oct-17 09:45N 29°43' W 095°15'0 0.0
2017-Oct-17 05:51N 29°43' W 095°15'0 0.0
2017-Oct-17 05:27N 29°43' W 095°15'1 1.6
2017-Oct-17 05:00N 29°43' W 095°14'0 0.1
2017-Oct-17 04:24N 29°43' W 095°14'0 0.6
2017-Oct-17 03:58N 29°43' W 095°14'1 1.7
2017-Oct-17 03:29N 29°44' W 095°13'1 2.7
2017-Oct-17 03:01N 29°43' W 095°15'0 0.0
2017-Oct-17 02:28N 29°43' W 095°15'0 0.0
2017-Oct-17 01:52N 29°43' W 095°15'0 0.0
2017-Oct-17 01:28N 29°43' W 095°15'0 0.0
2017-Oct-17 01:01N 29°43' W 095°15'1 2.4
2017-Oct-17 00:29N 29°44' W 095°16'0 0.1
2017-Oct-17 00:00N 29°44' W 095°16'2 2.0
2017-Oct-16 23:14N 29°43' W 095°15'0 0.0
2017-Oct-16 23:00N 29°43' W 095°15'1 0.2
2017-Oct-16 20:49N 29°43' W 095°15'5 6.1
2017-Oct-16 19:57N 29°44' W 095°09'7 6.1
2017-Oct-16 18:51N 29°43' W 095°01'3 7.4
2017-Oct-16 18:30N 29°41' W 094°59'5 9.3
2017-Oct-16 18:01N 29°37' W 094°58'2 4.7
2017-Oct-16 17:29N 29°37' W 095°01'0 0.0
2017-Oct-16 16:57N 29°37' W 095°01'0 0.0
2017-Oct-16 16:31N 29°37' W 095°01'0 0.0
2017-Oct-16 16:00N 29°37' W 095°01'0 0.0
2017-Oct-16 15:30N 29°37' W 095°01'0 0.0
2017-Oct-16 15:01N 29°37' W 095°01'1 0.7
2017-Oct-16 14:00N 29°37' W 095°01'1 2.1
2017-Oct-16 13:31N 29°37' W 095°00'0 0.7
2017-Oct-16 13:00N 29°37' W 095°01'0 0.0
2017-Oct-16 12:30N 29°37' W 095°01'0 0.0
2017-Oct-16 12:00N 29°37' W 095°01'0 0.0
2017-Oct-16 11:31N 29°37' W 095°01'1 1.5
2017-Oct-16 11:01N 29°37' W 095°01'1 1.8
2017-Oct-16 10:30N 29°37' W 095°00'4 6.0
2017-Oct-16 09:54N 29°40' W 094°59'  
2017-Oct-13 12:27N 29°44' W 095°16'0 0.0
2017-Oct-13 11:49N 29°44' W 095°16'0 0.0
2017-Oct-13 07:13N 29°44' W 095°16'0 0.0
2017-Oct-13 06:53N 29°44' W 095°16'0 0.0
2017-Oct-13 05:00N 29°44' W 095°16'0 0.0
2017-Oct-13 04:29N 29°44' W 095°16'0 0.0
2017-Oct-13 03:58N 29°44' W 095°16'0 0.0
2017-Oct-13 03:30N 29°44' W 095°16'0 0.0
2017-Oct-13 03:00N 29°44' W 095°16'0 0.0
2017-Oct-13 02:21N 29°44' W 095°16'0 0.0
2017-Oct-13 01:59N 29°44' W 095°16'2 3.0
2017-Oct-13 01:24N 29°43' W 095°15'2 1.5
2017-Oct-13 00:16N 29°44' W 095°16'0 0.2
2017-Oct-12 23:57N 29°44' W 095°16'2 3.9
2017-Oct-12 23:29N 29°43' W 095°14'0 0.1
2017-Oct-12 23:00N 29°43' W 095°14'2 1.3
2017-Oct-12 21:36N 29°44' W 095°16'1 6.9
2017-Oct-12 21:25N 29°45' W 095°17'0 0.3
2017-Oct-12 20:46N 29°45' W 095°17'1 0.3
2017-Oct-12 18:48N 29°44' W 095°17'1 1.1
2017-Oct-12 18:08N 29°44' W 095°16'0 0.0
2017-Oct-12 17:20N 29°44' W 095°16'0 0.1
2017-Oct-12 14:41N 29°44' W 095°16'3 7.1
2017-Oct-12 14:12N 29°44' W 095°12'5 0.8
2017-Oct-12 08:15N 29°45' W 095°07'3 5.0
2017-Oct-12 07:36N 29°44' W 095°03'2 6.2
2017-Oct-12 07:21N 29°44' W 095°01'0 0.0
2017-Oct-12 07:00N 29°44' W 095°01'0 0.8
2017-Oct-12 06:22N 29°44' W 095°02'5 7.0
2017-Oct-12 05:37N 29°44' W 095°08'1 9.0
2017-Oct-12 05:30N 29°44' W 095°09'3 5.7
2017-Oct-12 05:00N 29°44' W 095°12'0 0.0
2017-Oct-12 04:26N 29°44' W 095°12'0 0.0
2017-Oct-12 04:00N 29°44' W 095°12'0 0.0
2017-Oct-12 03:26N 29°44' W 095°12'0 0.0
2017-Oct-12 03:00N 29°44' W 095°12'0 0.0
2017-Oct-12 02:30N 29°44' W 095°12'0 0.0
2017-Oct-12 01:43N 29°44' W 095°12'0 0.0
2017-Oct-11 21:47N 29°44' W 095°12'3 3.2
2017-Oct-11 20:54N 29°44' W 095°09'1 0.2
2017-Oct-11 17:32N 29°44' W 095°08'0 8.5
2017-Oct-11 17:30N 29°44' W 095°08'6 0.3
2017-Oct-10 19:25N 29°43' W 095°15'2 3.9
2017-Oct-10 18:55N 29°44' W 095°17'0 0.0
2017-Oct-10 17:43N 29°44' W 095°17'0 0.0
2017-Oct-10 17:25N 29°44' W 095°17'0 0.0
2017-Oct-10 16:55N 29°44' W 095°17'0 0.0
2017-Oct-10 16:25N 29°44' W 095°17'1 1.1
2017-Oct-10 15:50N 29°45' W 095°17'0 0.0
2017-Oct-10 15:30N 29°45' W 095°17'1 0.3
2017-Oct-10 13:15N 29°44' W 095°17'2 3.2
2017-Oct-10 12:28N 29°43' W 095°14'1 1.9
2017-Oct-10 11:56N 29°44' W 095°13'0 0.2
2017-Oct-10 11:25N 29°44' W 095°13'0 0.0
2017-Oct-10 10:47N 29°44' W 095°13'9 0.4
2017-Oct-09 10:54N 29°44' W 095°03'0 0.0
2017-Oct-09 10:28N 29°44' W 095°03'1 0.8
2017-Oct-09 08:56N 29°44' W 095°02'4 0.8
2017-Oct-09 03:37N 29°44' W 095°07'0 0.0
2017-Oct-09 03:27N 29°44' W 095°07'0 0.0
2017-Oct-09 03:00N 29°44' W 095°07'0 0.0
2017-Oct-09 02:30N 29°44' W 095°07'0 0.0
2017-Oct-09 01:59N 29°44' W 095°07'0 0.0
2017-Oct-09 01:30N 29°44' W 095°07'0 0.0
2017-Oct-08 10:52N 29°44' W 095°07'1 2.1
2017-Oct-08 10:25N 29°44' W 095°08'  

Dump ship's entire track history